Huvudsida
METAR-TAF:

METAR-TAF

Flygplatser :

Benbecula Airport

Benbecula, Skottland

latitud: 57-28N, longitud: 007-22W, höjd: 6 m

Aktuellt väderrapport

Denna rapport gjordes för 32 minuter sedan, klockan 00:20 UTC
Vind 10 kt från sydost
Temperatur 13°C
Fuktighet 62%
Tryck 1001 hPa
Sikt 10 km eller mer

METAR: EGPL 230020Z AUTO 14010KT 9999 NCD 13/06 Q1001

Tid: 01:52 (00:52 UTC)

Väderprognos

Denna rapport gjordes för 10 timmar och 51 minuter sedan, klockan 14:01 UTC
Prognos gäller från 22 kl. 15 UTC till 22 kl. 17 UTC
Vind 18 kt från syd/sydost
Sikt 10 km eller mer
Inga moln under 1 500 m eller inga cumulonimbus
Temporärt
från 22 kl. 15 UTC till 22 kl. 17 UTC
Vind 25 kt från syd/sydost i byarna ända upp till 35 kt

TAF: EGPL 221401Z 2215/2217 16018KT CAVOK TEMPO 2215/2217 16025G35KT

Aktuella väderrapporter och prognoser från 4000 flygplatser (METAR- och TAF-rapporter).

De tillgängliga stationerna syns som gula och röda prickar på kartan.

För musen över prickarna för att se namnen på stationerna.

Klicka sedan för att få väderrapporter och prognoser.

För att ändra kartan: Klicka på de gröna knapparna med ett svart kors på för att zooma in; den gröna knappen med ett streck på för att zooma ut; eller på de gröna pilarna för angränsande kartor.


METAR-TAF: